Morejarl — LLWD — position and weather

sailwx.info

Track history (hours):
 
Tides and Currents Weather Stations Pressure Air Temp Water Temp Dewpoint Dewpoint Depression Visibility Wind Speed Wind Dir Waves Ship Positions

Morejarl

Last reported at 2014-Sep-02 19:20 UTC. Time now 2014-Sep-03 00:05 UTC.
Position N 63°29' E 010°02'.

Length 35 m; draft 1.9 m.

Type: High speed craft. MMSI: 258561000.

Date/timePositionNaut miles runAvg speedWind from/ knotsBaromVisibWave heightAir tempDewpointWater temp
2014-Sep-02 19:20N 63°29' E 010°02'1012.8
2014-Sep-02 18:34N 63°26' E 010°24'8 1.0
2014-Sep-02 10:33N 63°28' E 010°06'8 8.4
2014-Sep-02 09:34N 63°26' E 010°24'16 0.8
2014-Sep-01 15:07N 63°31' E 009°50'1526.8
2014-Sep-01 14:34N 63°27' E 010°22'0 0.3
2014-Sep-01 13:34N 63°26' E 010°22'2619.0
2014-Sep-01 12:10N 63°36' E 009°27'2228.0
2014-Sep-01 11:22N 63°26' E 008°43'35 7.2
2014-Sep-01 06:31N 63°29' E 010°02'1010.6
2014-Sep-01 05:34N 63°26' E 010°24'0 0.0
2014-Aug-31 18:34N 63°26' E 010°23'1010.1
2014-Aug-31 17:33N 63°29' E 010°02'0 0.0
2014-Aug-31 10:32N 63°29' E 010°02'1010.5
2014-Aug-31 09:34N 63°26' E 010°24'1 0.1
2014-Aug-30 19:34N 63°27' E 010°22'1 1.0
2014-Aug-30 18:34N 63°26' E 010°24'0 0.0
2014-Aug-30 17:34N 63°26' E 010°24'1 0.9
2014-Aug-30 16:34N 63°26' E 010°22'15 0.6
2014-Aug-29 15:04N 63°30' E 009°50'1529.7
2014-Aug-29 14:34N 63°26' E 010°23'0 0.4
2014-Aug-29 13:34N 63°27' E 010°22'9 1.3
2014-Aug-29 06:31N 63°29' E 010°02'1010.6
2014-Aug-29 05:34N 63°26' E 010°24'10 0.9
2014-Aug-28 19:22N 63°29' E 010°03'1011.7
2014-Aug-28 18:34N 63°26' E 010°24'9 1.1
2014-Aug-28 10:34N 63°29' E 010°05'9 8.9
2014-Aug-28 09:34N 63°26' E 010°24'61 7.5
2014-Aug-28 01:25N 63°17' E 008°08'0 0.0
2014-Aug-27 20:09N 63°17' E 008°08'0 0.0
2014-Aug-27 19:24N 63°17' E 008°08'4811.2
2014-Aug-27 15:09N 63°31' E 009°50'1525.0
2014-Aug-27 14:34N 63°27' E 010°22'1 0.9
2014-Aug-27 13:34N 63°26' E 010°24'10 1.4
2014-Aug-27 06:32N 63°29' E 010°02'1010.4
2014-Aug-27 05:34N 63°26' E 010°24'10 1.0
2014-Aug-26 19:21N 63°29' E 010°02'1012.6
2014-Aug-26 18:34N 63°26' E 010°23'7418.2
2014-Aug-26 14:29N 63°07' E 007°44'12 8.8
2014-Aug-26 13:06N 63°15' E 008°04'5621.8
2014-Aug-26 10:33N 63°29' E 010°04'9 9.0
2014-Aug-26 09:34N 63°26' E 010°24'7121.2
2014-Aug-26 06:14N 63°10' E 007°51'4 5.2
2014-Aug-26 05:31N 63°07' E 007°46'14 7.0
2014-Aug-26 03:30N 63°17' E 008°08'0 0.0
2014-Aug-25 23:22N 63°17' E 008°08'0 0.0
2014-Aug-25 22:32N 63°17' E 008°08'0 0.0
2014-Aug-25 20:16N 63°17' E 008°08'0 0.0
2014-Aug-25 19:27N 63°17' E 008°08'4710.8
2014-Aug-25 15:03N 63°30' E 009°50'1529.8
2014-Aug-25 14:34N 63°27' E 010°22'1 0.7
2014-Aug-25 13:34N 63°26' E 010°23'10 1.4
2014-Aug-25 06:30N 63°29' E 010°02'1010.4
2014-Aug-25 05:34N 63°26' E 010°24'1 0.1
2014-Aug-24 18:34N 63°27' E 010°22'7 7.4
2014-Aug-24 17:33N 63°28' E 010°06'2 0.3
2014-Aug-24 10:31N 63°29' E 010°02'1010.4
2014-Aug-24 09:34N 63°26' E 010°24'1 0.0
2014-Aug-23 19:34N 63°26' E 010°23'  
Track history (hours):
 
Tides and Currents Weather Stations Pressure Air Temp Water Temp Dewpoint Dewpoint Depression Visibility Wind Speed Wind Dir Waves Ship Positions

Morejarl

Last reported at 2014-Sep-02 19:20 UTC. Time now 2014-Sep-03 00:05 UTC.
Position N 63°29' E 010°02'.

Length 35 m; draft 1.9 m.

Type: High speed craft. MMSI: 258561000.

Date/timePositionNaut miles runAvg speedWind from/ knotsBaromVisibWave heightAir tempDewpointWater temp
2014-Sep-02 19:20N 63°29' E 010°02'1012.8
2014-Sep-02 18:34N 63°26' E 010°24'8 1.0
2014-Sep-02 10:33N 63°28' E 010°06'8 8.4
2014-Sep-02 09:34N 63°26' E 010°24'16 0.8
2014-Sep-01 15:07N 63°31' E 009°50'1526.8
2014-Sep-01 14:34N 63°27' E 010°22'0 0.3
2014-Sep-01 13:34N 63°26' E 010°22'2619.0
2014-Sep-01 12:10N 63°36' E 009°27'2228.0
2014-Sep-01 11:22N 63°26' E 008°43'35 7.2
2014-Sep-01 06:31N 63°29' E 010°02'1010.6
2014-Sep-01 05:34N 63°26' E 010°24'0 0.0
2014-Aug-31 18:34N 63°26' E 010°23'1010.1
2014-Aug-31 17:33N 63°29' E 010°02'0 0.0
2014-Aug-31 10:32N 63°29' E 010°02'1010.5
2014-Aug-31 09:34N 63°26' E 010°24'1 0.1
2014-Aug-30 19:34N 63°27' E 010°22'1 1.0
2014-Aug-30 18:34N 63°26' E 010°24'0 0.0
2014-Aug-30 17:34N 63°26' E 010°24'1 0.9
2014-Aug-30 16:34N 63°26' E 010°22'15 0.6
2014-Aug-29 15:04N 63°30' E 009°50'1529.7
2014-Aug-29 14:34N 63°26' E 010°23'0 0.4
2014-Aug-29 13:34N 63°27' E 010°22'9 1.3
2014-Aug-29 06:31N 63°29' E 010°02'1010.6
2014-Aug-29 05:34N 63°26' E 010°24'10 0.9
2014-Aug-28 19:22N 63°29' E 010°03'1011.7
2014-Aug-28 18:34N 63°26' E 010°24'9 1.1
2014-Aug-28 10:34N 63°29' E 010°05'9 8.9
2014-Aug-28 09:34N 63°26' E 010°24'61 7.5
2014-Aug-28 01:25N 63°17' E 008°08'0 0.0
2014-Aug-27 20:09N 63°17' E 008°08'0 0.0
2014-Aug-27 19:24N 63°17' E 008°08'4811.2
2014-Aug-27 15:09N 63°31' E 009°50'1525.0
2014-Aug-27 14:34N 63°27' E 010°22'1 0.9
2014-Aug-27 13:34N 63°26' E 010°24'10 1.4
2014-Aug-27 06:32N 63°29' E 010°02'1010.4
2014-Aug-27 05:34N 63°26' E 010°24'10 1.0
2014-Aug-26 19:21N 63°29' E 010°02'1012.6
2014-Aug-26 18:34N 63°26' E 010°23'7418.2
2014-Aug-26 14:29N 63°07' E 007°44'12 8.8
2014-Aug-26 13:06N 63°15' E 008°04'5621.8
2014-Aug-26 10:33N 63°29' E 010°04'9 9.0
2014-Aug-26 09:34N 63°26' E 010°24'7121.2
2014-Aug-26 06:14N 63°10' E 007°51'4 5.2
2014-Aug-26 05:31N 63°07' E 007°46'14 7.0
2014-Aug-26 03:30N 63°17' E 008°08'0 0.0
2014-Aug-25 23:22N 63°17' E 008°08'0 0.0
2014-Aug-25 22:32N 63°17' E 008°08'0 0.0
2014-Aug-25 20:16N 63°17' E 008°08'0 0.0
2014-Aug-25 19:27N 63°17' E 008°08'4710.8
2014-Aug-25 15:03N 63°30' E 009°50'1529.8
2014-Aug-25 14:34N 63°27' E 010°22'1 0.7
2014-Aug-25 13:34N 63°26' E 010°23'10 1.4
2014-Aug-25 06:30N 63°29' E 010°02'1010.4
2014-Aug-25 05:34N 63°26' E 010°24'1 0.1
2014-Aug-24 18:34N 63°27' E 010°22'7 7.4
2014-Aug-24 17:33N 63°28' E 010°06'2 0.3
2014-Aug-24 10:31N 63°29' E 010°02'1010.4
2014-Aug-24 09:34N 63°26' E 010°24'1 0.0
2014-Aug-23 19:34N 63°26' E 010°23'  

Dump ship's entire track history